sensor_id;sensor_type;location;lat;lon;timestamp;pressure;altitude;pressure_sealevel;temperature;humidity
71964;BME280;59834;52.124;5.422;2023-06-14T00:00:41;101568.88;;;18.95;46.07
71964;BME280;59834;52.124;5.422;2023-06-14T00:03:10;101578.75;;;18.93;46.04
71964;BME280;59834;52.124;5.422;2023-06-14T00:05:38;101578.03;;;18.91;45.83
71964;BME280;59834;52.124;5.422;2023-06-14T00:08:09;101585.06;;;18.92;46.09
71964;BME280;59834;52.124;5.422;2023-06-14T00:10:37;101578.19;;;18.89;45.96
71964;BME280;59834;52.124;5.422;2023-06-14T00:13:05;101576.38;;;18.90;45.96
71964;BME280;59834;52.124;5.422;2023-06-14T00:15:33;101580.53;;;18.82;46.33
71964;BME280;59834;52.124;5.422;2023-06-14T00:18:01;101577.69;;;18.74;46.56
71964;BME280;59834;52.124;5.422;2023-06-14T00:20:29;101575.91;;;18.75;45.97
71964;BME280;59834;52.124;5.422;2023-06-14T00:22:57;101577.44;;;18.77;46.34
71964;BME280;59834;52.124;5.422;2023-06-14T00:25:24;101573.09;;;18.76;46.66
71964;BME280;59834;52.124;5.422;2023-06-14T00:27:57;101579.13;;;18.78;46.17
71964;BME280;59834;52.124;5.422;2023-06-14T00:30:24;101578.56;;;18.75;46.08
71964;BME280;59834;52.124;5.422;2023-06-14T00:32:51;101589.44;;;18.72;46.44
71964;BME280;59834;52.124;5.422;2023-06-14T00:35:24;101582.38;;;18.71;46.16
71964;BME280;59834;52.124;5.422;2023-06-14T00:37:51;101587.28;;;18.66;46.42
71964;BME280;59834;52.124;5.422;2023-06-14T00:40:18;101585.00;;;18.61;46.18
71964;BME280;59834;52.124;5.422;2023-06-14T00:42:45;101580.66;;;18.60;46.41
71964;BME280;59834;52.124;5.422;2023-06-14T00:45:12;101583.47;;;18.58;46.77
71964;BME280;59834;52.124;5.422;2023-06-14T00:47:41;101585.66;;;18.53;46.74
71964;BME280;59834;52.124;5.422;2023-06-14T00:50:09;101576.16;;;18.51;46.81
71964;BME280;59834;52.124;5.422;2023-06-14T00:52:36;101574.72;;;18.47;46.92
71964;BME280;59834;52.124;5.422;2023-06-14T00:55:03;101577.78;;;18.42;47.00
71964;BME280;59834;52.124;5.422;2023-06-14T00:57:29;101579.03;;;18.38;47.41
71964;BME280;59834;52.124;5.422;2023-06-14T00:59:56;101581.94;;;18.35;46.84
71964;BME280;59834;52.124;5.422;2023-06-14T01:02:23;101577.72;;;18.32;47.14
71964;BME280;59834;52.124;5.422;2023-06-14T01:04:51;101581.59;;;18.28;47.57
71964;BME280;59834;52.124;5.422;2023-06-14T01:07:23;101588.00;;;18.26;47.90
71964;BME280;59834;52.124;5.422;2023-06-14T01:10:35;101587.53;;;18.21;47.37
71964;BME280;59834;52.124;5.422;2023-06-14T01:13:12;101580.13;;;18.14;47.45
71964;BME280;59834;52.124;5.422;2023-06-14T01:15:39;101592.91;;;18.09;47.91
71964;BME280;59834;52.124;5.422;2023-06-14T01:18:07;101585.09;;;18.08;47.56
71964;BME280;59834;52.124;5.422;2023-06-14T01:20:34;101581.13;;;18.02;47.46
71964;BME280;59834;52.124;5.422;2023-06-14T01:23:05;101571.88;;;17.97;47.83
71964;BME280;59834;52.124;5.422;2023-06-14T01:25:31;101578.28;;;17.94;48.42
71964;BME280;59834;52.124;5.422;2023-06-14T01:28:06;101583.84;;;17.91;48.19
71964;BME280;59834;52.124;5.422;2023-06-14T01:30:42;101580.88;;;17.84;48.59
71964;BME280;59834;52.124;5.422;2023-06-14T01:33:13;101571.34;;;17.82;48.61
71964;BME280;59834;52.124;5.422;2023-06-14T01:35:43;101578.72;;;17.78;48.25
71964;BME280;59834;52.124;5.422;2023-06-14T01:38:10;101583.28;;;17.76;48.60
71964;BME280;59834;52.124;5.422;2023-06-14T01:40:39;101586.41;;;17.70;48.92
71964;BME280;59834;52.124;5.422;2023-06-14T01:43:07;101590.50;;;17.63;49.10
71964;BME280;59834;52.124;5.422;2023-06-14T01:45:34;101584.63;;;17.59;49.42
71964;BME280;59834;52.124;5.422;2023-06-14T01:48:03;101586.69;;;17.56;48.85
71964;BME280;59834;52.124;5.422;2023-06-14T01:50:31;101594.88;;;17.53;49.55
71964;BME280;59834;52.124;5.422;2023-06-14T01:52:58;101591.53;;;17.51;49.83
71964;BME280;59834;52.124;5.422;2023-06-14T01:55:24;101576.25;;;17.43;49.86
71964;BME280;59834;52.124;5.422;2023-06-14T01:57:51;101580.94;;;17.39;49.60
71964;BME280;59834;52.124;5.422;2023-06-14T02:00:19;101582.16;;;17.35;49.48
71964;BME280;59834;52.124;5.422;2023-06-14T02:02:47;101589.13;;;17.36;49.73
71964;BME280;59834;52.124;5.422;2023-06-14T02:05:14;101586.88;;;17.32;50.27
71964;BME280;59834;52.124;5.422;2023-06-14T02:07:41;101585.69;;;17.25;49.73
71964;BME280;59834;52.124;5.422;2023-06-14T02:10:08;101585.09;;;17.21;50.57
71964;BME280;59834;52.124;5.422;2023-06-14T02:12:34;101585.56;;;17.15;50.09
71964;BME280;59834;52.124;5.422;2023-06-14T02:15:01;101590.03;;;17.14;50.62
71964;BME280;59834;52.124;5.422;2023-06-14T02:17:28;101580.66;;;17.10;50.74
71964;BME280;59834;52.124;5.422;2023-06-14T02:19:54;101582.44;;;17.10;50.67
71964;BME280;59834;52.124;5.422;2023-06-14T02:22:23;101585.31;;;17.07;50.31
71964;BME280;59834;52.124;5.422;2023-06-14T02:24:50;101581.22;;;17.03;50.33
71964;BME280;59834;52.124;5.422;2023-06-14T02:27:27;101583.88;;;17.03;50.40
71964;BME280;59834;52.124;5.422;2023-06-14T02:29:53;101582.19;;;17.02;50.63
71964;BME280;59834;52.124;5.422;2023-06-14T02:32:20;101580.78;;;16.98;51.07
71964;BME280;59834;52.124;5.422;2023-06-14T02:34:46;101588.22;;;16.92;50.81
71964;BME280;59834;52.124;5.422;2023-06-14T02:37:16;101586.91;;;16.87;50.80
71964;BME280;59834;52.124;5.422;2023-06-14T02:39:43;101595.06;;;16.84;50.88
71964;BME280;59834;52.124;5.422;2023-06-14T02:42:09;101598.06;;;16.79;50.54
71964;BME280;59834;52.124;5.422;2023-06-14T02:44:36;101586.78;;;16.77;51.61
71964;BME280;59834;52.124;5.422;2023-06-14T02:47:04;101588.69;;;16.75;51.34
71964;BME280;59834;52.124;5.422;2023-06-14T02:49:31;101597.66;;;16.72;51.71
71964;BME280;59834;52.124;5.422;2023-06-14T02:51:58;101599.47;;;16.72;51.26
71964;BME280;59834;52.124;5.422;2023-06-14T02:54:24;101599.00;;;16.67;51.75
71964;BME280;59834;52.124;5.422;2023-06-14T02:56:51;101597.53;;;16.63;51.17
71964;BME280;59834;52.124;5.422;2023-06-14T02:59:17;101603.03;;;16.60;51.84
71964;BME280;59834;52.124;5.422;2023-06-14T03:01:45;101607.63;;;16.58;51.52
71964;BME280;59834;52.124;5.422;2023-06-14T03:04:12;101605.94;;;16.57;51.86
71964;BME280;59834;52.124;5.422;2023-06-14T03:06:39;101616.63;;;16.55;51.86
71964;BME280;59834;52.124;5.422;2023-06-14T03:09:06;101607.34;;;16.49;52.35
71964;BME280;59834;52.124;5.422;2023-06-14T03:11:35;101612.38;;;16.41;52.61
71964;BME280;59834;52.124;5.422;2023-06-14T03:14:02;101615.16;;;16.40;52.83
71964;BME280;59834;52.124;5.422;2023-06-14T03:16:33;101616.94;;;16.39;52.45
71964;BME280;59834;52.124;5.422;2023-06-14T03:19:00;101618.03;;;16.37;53.07
71964;BME280;59834;52.124;5.422;2023-06-14T03:21:27;101620.06;;;16.33;52.83
71964;BME280;59834;52.124;5.422;2023-06-14T03:23:54;101621.97;;;16.31;52.48
71964;BME280;59834;52.124;5.422;2023-06-14T03:26:21;101622.81;;;16.32;53.10
71964;BME280;59834;52.124;5.422;2023-06-14T03:28:48;101622.19;;;16.28;53.20
71964;BME280;59834;52.124;5.422;2023-06-14T03:31:16;101625.81;;;16.27;53.17
71964;BME280;59834;52.124;5.422;2023-06-14T03:33:43;101630.34;;;16.25;53.55
71964;BME280;59834;52.124;5.422;2023-06-14T03:36:09;101622.66;;;16.22;53.11
71964;BME280;59834;52.124;5.422;2023-06-14T03:38:36;101630.56;;;16.22;53.19
71964;BME280;59834;52.124;5.422;2023-06-14T03:41:03;101628.53;;;16.25;53.39
71964;BME280;59834;52.124;5.422;2023-06-14T03:43:29;101633.22;;;16.22;53.13
71964;BME280;59834;52.124;5.422;2023-06-14T03:45:56;101633.22;;;16.22;53.52
71964;BME280;59834;52.124;5.422;2023-06-14T03:48:23;101636.81;;;16.21;53.62
71964;BME280;59834;52.124;5.422;2023-06-14T03:50:50;101642.09;;;16.21;53.19
71964;BME280;59834;52.124;5.422;2023-06-14T03:53:17;101639.47;;;16.21;53.68
71964;BME280;59834;52.124;5.422;2023-06-14T03:55:43;101644.41;;;16.25;53.27
71964;BME280;59834;52.124;5.422;2023-06-14T03:58:13;101639.72;;;16.29;53.05
71964;BME280;59834;52.124;5.422;2023-06-14T04:00:39;101649.34;;;16.30;52.86
71964;BME280;59834;52.124;5.422;2023-06-14T04:03:06;101650.56;;;16.37;53.21
71964;BME280;59834;52.124;5.422;2023-06-14T04:05:33;101650.81;;;16.45;53.47
71964;BME280;59834;52.124;5.422;2023-06-14T04:08:00;101650.28;;;16.64;52.26
71964;BME280;59834;52.124;5.422;2023-06-14T04:10:27;101651.50;;;17.84;50.48
71964;BME280;59834;52.124;5.422;2023-06-14T04:12:54;101662.25;;;19.19;47.16
71964;BME280;59834;52.124;5.422;2023-06-14T04:15:20;101658.81;;;19.98;44.89
71964;BME280;59834;52.124;5.422;2023-06-14T04:17:48;101655.06;;;20.49;43.94
71964;BME280;59834;52.124;5.422;2023-06-14T04:20:15;101647.38;;;21.40;41.84
71964;BME280;59834;52.124;5.422;2023-06-14T04:22:43;101650.72;;;22.05;40.70
71964;BME280;59834;52.124;5.422;2023-06-14T04:25:10;101648.31;;;22.56;38.96
71964;BME280;59834;52.124;5.422;2023-06-14T04:27:37;101650.56;;;22.43;39.74
71964;BME280;59834;52.124;5.422;2023-06-14T04:30:05;101649.53;;;22.62;39.35
71964;BME280;59834;52.124;5.422;2023-06-14T04:32:32;101652.47;;;23.02;38.89
71964;BME280;59834;52.124;5.422;2023-06-14T04:35:08;101654.94;;;23.30;37.78
71964;BME280;59834;52.124;5.422;2023-06-14T04:37:35;101651.78;;;23.35;37.29
71964;BME280;59834;52.124;5.422;2023-06-14T04:40:07;101658.25;;;23.24;37.35
71964;BME280;59834;52.124;5.422;2023-06-14T04:42:37;101660.97;;;23.74;37.39
71964;BME280;59834;52.124;5.422;2023-06-14T04:45:05;101662.06;;;23.64;37.61
71964;BME280;59834;52.124;5.422;2023-06-14T04:47:33;101660.34;;;24.21;36.61
71964;BME280;59834;52.124;5.422;2023-06-14T04:50:00;101664.53;;;24.32;35.96
71964;BME280;59834;52.124;5.422;2023-06-14T04:52:28;101660.50;;;24.12;36.33
71964;BME280;59834;52.124;5.422;2023-06-14T04:54:56;101669.69;;;24.01;36.16
71964;BME280;59834;52.124;5.422;2023-06-14T04:57:23;101669.75;;;24.42;35.64
71964;BME280;59834;52.124;5.422;2023-06-14T04:59:51;101662.84;;;24.72;34.85
71964;BME280;59834;52.124;5.422;2023-06-14T05:02:25;101665.75;;;25.10;34.41
71964;BME280;59834;52.124;5.422;2023-06-14T05:04:52;101669.78;;;24.98;34.38
71964;BME280;59834;52.124;5.422;2023-06-14T05:07:18;101674.34;;;24.81;35.11
71964;BME280;59834;52.124;5.422;2023-06-14T05:09:46;101660.25;;;25.03;34.82
71964;BME280;59834;52.124;5.422;2023-06-14T05:12:13;101666.91;;;25.55;33.67
71964;BME280;59834;52.124;5.422;2023-06-14T05:14:39;101662.66;;;25.37;33.96
71964;BME280;59834;52.124;5.422;2023-06-14T05:17:06;101678.03;;;25.44;33.66
71964;BME280;59834;52.124;5.422;2023-06-14T05:19:33;101668.13;;;24.97;34.21
71964;BME280;59834;52.124;5.422;2023-06-14T05:21:59;101677.31;;;25.19;34.03
71964;BME280;59834;52.124;5.422;2023-06-14T05:24:26;101673.19;;;24.83;34.53
71964;BME280;59834;52.124;5.422;2023-06-14T05:26:53;101675.56;;;25.34;34.16
71964;BME280;59834;52.124;5.422;2023-06-14T05:29:19;101677.41;;;25.33;33.90
71964;BME280;59834;52.124;5.422;2023-06-14T05:31:46;101675.19;;;24.89;34.51
71964;BME280;59834;52.124;5.422;2023-06-14T05:34:13;101677.25;;;24.63;35.22
71964;BME280;59834;52.124;5.422;2023-06-14T05:36:39;101684.84;;;25.15;34.37
71964;BME280;59834;52.124;5.422;2023-06-14T05:39:06;101680.13;;;25.25;33.75
71964;BME280;59834;52.124;5.422;2023-06-14T05:41:33;101683.94;;;25.70;33.54
71964;BME280;59834;52.124;5.422;2023-06-14T05:44:00;101686.38;;;25.88;33.56
71964;BME280;59834;52.124;5.422;2023-06-14T05:46:27;101688.28;;;26.48;32.15
71964;BME280;59834;52.124;5.422;2023-06-14T05:48:55;101687.69;;;26.15;32.72
71964;BME280;59834;52.124;5.422;2023-06-14T05:51:22;101690.00;;;26.18;32.50
71964;BME280;59834;52.124;5.422;2023-06-14T05:53:51;101690.91;;;25.88;32.79
71964;BME280;59834;52.124;5.422;2023-06-14T05:56:18;101697.41;;;26.39;32.50
71964;BME280;59834;52.124;5.422;2023-06-14T05:58:46;101698.59;;;25.91;32.78
71964;BME280;59834;52.124;5.422;2023-06-14T06:01:13;101697.78;;;25.82;33.65
71964;BME280;59834;52.124;5.422;2023-06-14T06:03:40;101702.56;;;26.26;32.76
71964;BME280;59834;52.124;5.422;2023-06-14T06:06:07;101696.19;;;26.42;32.41
71964;BME280;59834;52.124;5.422;2023-06-14T06:08:34;101709.81;;;26.17;32.91
71964;BME280;59834;52.124;5.422;2023-06-14T06:11:01;101703.00;;;25.83;32.70
71964;BME280;59834;52.124;5.422;2023-06-14T06:13:28;101710.53;;;25.49;33.89
71964;BME280;59834;52.124;5.422;2023-06-14T06:15:55;101713.19;;;26.11;32.91
71964;BME280;59834;52.124;5.422;2023-06-14T06:18:22;101708.66;;;26.34;32.96
71964;BME280;59834;52.124;5.422;2023-06-14T06:20:49;101713.09;;;26.27;32.17
71964;BME280;59834;52.124;5.422;2023-06-14T06:23:16;101706.78;;;26.20;32.81
71964;BME280;59834;52.124;5.422;2023-06-14T06:25:43;101704.06;;;26.43;31.32
71964;BME280;59834;52.124;5.422;2023-06-14T06:28:10;101713.03;;;26.13;32.65
71964;BME280;59834;52.124;5.422;2023-06-14T06:30:38;101713.53;;;26.16;32.31
71964;BME280;59834;52.124;5.422;2023-06-14T06:33:05;101721.41;;;25.78;33.66
71964;BME280;59834;52.124;5.422;2023-06-14T06:35:32;101713.63;;;26.23;33.22
71964;BME280;59834;52.124;5.422;2023-06-14T06:38:00;101711.66;;;26.63;32.90
71964;BME280;59834;52.124;5.422;2023-06-14T06:40:27;101717.03;;;26.63;32.20
71964;BME280;59834;52.124;5.422;2023-06-14T06:42:54;101721.31;;;26.03;32.63
71964;BME280;59834;52.124;5.422;2023-06-14T06:45:21;101726.75;;;26.18;32.47
71964;BME280;59834;52.124;5.422;2023-06-14T06:47:51;101725.13;;;26.08;32.32
71964;BME280;59834;52.124;5.422;2023-06-14T06:50:18;101732.28;;;26.16;32.93
71964;BME280;59834;52.124;5.422;2023-06-14T06:52:46;101725.00;;;26.02;33.30
71964;BME280;59834;52.124;5.422;2023-06-14T06:55:13;101739.00;;;25.89;32.61
71964;BME280;59834;52.124;5.422;2023-06-14T06:57:41;101730.34;;;26.02;32.79
71964;BME280;59834;52.124;5.422;2023-06-14T07:00:08;101737.47;;;26.18;32.31
71964;BME280;59834;52.124;5.422;2023-06-14T07:02:36;101736.56;;;26.25;31.96
71964;BME280;59834;52.124;5.422;2023-06-14T07:05:03;101745.34;;;26.19;32.98
71964;BME280;59834;52.124;5.422;2023-06-14T07:07:31;101739.53;;;26.16;32.47
71964;BME280;59834;52.124;5.422;2023-06-14T07:09:58;101744.44;;;25.64;33.39
71964;BME280;59834;52.124;5.422;2023-06-14T07:12:25;101738.41;;;26.02;33.06
71964;BME280;59834;52.124;5.422;2023-06-14T07:14:52;101739.56;;;26.07;32.61
71964;BME280;59834;52.124;5.422;2023-06-14T07:17:19;101747.03;;;25.42;33.09
71964;BME280;59834;52.124;5.422;2023-06-14T07:19:46;101751.84;;;24.50;34.87
71964;BME280;59834;52.124;5.422;2023-06-14T07:22:12;101755.59;;;24.14;35.75
71964;BME280;59834;52.124;5.422;2023-06-14T07:24:39;101759.75;;;24.00;36.23
71964;BME280;59834;52.124;5.422;2023-06-14T07:27:07;101765.25;;;23.91;35.67
71964;BME280;59834;52.124;5.422;2023-06-14T07:29:34;101764.88;;;23.78;36.54
71964;BME280;59834;52.124;5.422;2023-06-14T07:32:01;101760.38;;;23.78;36.28
71964;BME280;59834;52.124;5.422;2023-06-14T07:34:28;101769.53;;;23.75;36.68
71964;BME280;59834;52.124;5.422;2023-06-14T07:36:54;101759.88;;;23.48;36.93
71964;BME280;59834;52.124;5.422;2023-06-14T07:39:21;101769.84;;;23.38;37.62
71964;BME280;59834;52.124;5.422;2023-06-14T07:41:48;101764.19;;;23.41;37.29
71964;BME280;59834;52.124;5.422;2023-06-14T07:44:15;101767.53;;;23.43;37.12
71964;BME280;59834;52.124;5.422;2023-06-14T07:46:42;101774.34;;;23.38;36.39
71964;BME280;59834;52.124;5.422;2023-06-14T07:49:09;101775.63;;;23.25;36.21
71964;BME280;59834;52.124;5.422;2023-06-14T07:51:36;101777.38;;;23.17;36.60
71964;BME280;59834;52.124;5.422;2023-06-14T07:54:04;101773.47;;;23.29;36.89
71964;BME280;59834;52.124;5.422;2023-06-14T07:56:31;101773.34;;;23.39;36.80
71964;BME280;59834;52.124;5.422;2023-06-14T07:58:57;101776.13;;;23.55;36.71
71964;BME280;59834;52.124;5.422;2023-06-14T08:01:24;101783.06;;;23.74;36.68
71964;BME280;59834;52.124;5.422;2023-06-14T08:03:52;101779.03;;;23.70;35.93
71964;BME280;59834;52.124;5.422;2023-06-14T08:06:19;101789.34;;;23.65;35.44
71964;BME280;59834;52.124;5.422;2023-06-14T08:08:45;101780.81;;;23.61;35.18
71964;BME280;59834;52.124;5.422;2023-06-14T08:11:12;101780.06;;;23.77;35.55
71964;BME280;59834;52.124;5.422;2023-06-14T08:13:39;101783.63;;;23.86;35.83
71964;BME280;59834;52.124;5.422;2023-06-14T08:16:06;101783.03;;;24.08;35.52
71964;BME280;59834;52.124;5.422;2023-06-14T08:18:32;101784.91;;;24.32;34.87
71964;BME280;59834;52.124;5.422;2023-06-14T08:20:59;101785.25;;;24.37;34.65
71964;BME280;59834;52.124;5.422;2023-06-14T08:23:26;101784.22;;;24.22;34.71
71964;BME280;59834;52.124;5.422;2023-06-14T08:25:53;101784.09;;;24.32;34.06
71964;BME280;59834;52.124;5.422;2023-06-14T08:28:20;101788.19;;;24.10;33.30
71964;BME280;59834;52.124;5.422;2023-06-14T08:30:47;101787.03;;;24.12;33.41
71964;BME280;59834;52.124;5.422;2023-06-14T08:33:14;101781.31;;;23.99;33.26
71964;BME280;59834;52.124;5.422;2023-06-14T08:35:44;101774.38;;;24.22;33.61
71964;BME280;59834;52.124;5.422;2023-06-14T08:38:11;101783.97;;;24.41;33.60
71964;BME280;59834;52.124;5.422;2023-06-14T08:40:41;101784.97;;;24.49;32.81
71964;BME280;59834;52.124;5.422;2023-06-14T08:43:09;101782.47;;;24.55;32.53
71964;BME280;59834;52.124;5.422;2023-06-14T08:45:36;101777.44;;;24.60;32.61
71964;BME280;59834;52.124;5.422;2023-06-14T08:48:03;101778.28;;;24.61;32.28
71964;BME280;59834;52.124;5.422;2023-06-14T08:50:32;101782.47;;;24.55;32.54
71964;BME280;59834;52.124;5.422;2023-06-14T08:53:01;101776.78;;;24.58;32.53
71964;BME280;59834;52.124;5.422;2023-06-14T08:55:30;101781.47;;;24.73;32.38
71964;BME280;59834;52.124;5.422;2023-06-14T08:58:02;101782.63;;;24.70;31.64
71964;BME280;59834;52.124;5.422;2023-06-14T09:00:33;101768.53;;;24.35;30.66
71964;BME280;59834;52.124;5.422;2023-06-14T09:03:01;101780.59;;;24.48;30.97
71964;BME280;59834;52.124;5.422;2023-06-14T09:05:29;101779.63;;;24.49;31.40
71964;BME280;59834;52.124;5.422;2023-06-14T09:07:56;101785.47;;;24.52;30.98
71964;BME280;59834;52.124;5.422;2023-06-14T09:10:31;101791.00;;;24.59;30.79
71964;BME280;59834;52.124;5.422;2023-06-14T09:13:03;101784.47;;;24.45;30.85
71964;BME280;59834;52.124;5.422;2023-06-14T09:15:30;101787.66;;;24.57;32.09
71964;BME280;59834;52.124;5.422;2023-06-14T09:17:58;101778.59;;;24.90;32.05
71964;BME280;59834;52.124;5.422;2023-06-14T09:20:29;101781.28;;;24.99;31.29
71964;BME280;59834;52.124;5.422;2023-06-14T09:22:56;101783.63;;;24.93;31.15
71964;BME280;59834;52.124;5.422;2023-06-14T09:25:25;101781.44;;;24.97;31.14
71964;BME280;59834;52.124;5.422;2023-06-14T09:27:56;101782.94;;;24.91;31.76
71964;BME280;59834;52.124;5.422;2023-06-14T09:30:23;101781.28;;;24.99;31.31
71964;BME280;59834;52.124;5.422;2023-06-14T09:32:49;101794.66;;;25.07;31.12
71964;BME280;59834;52.124;5.422;2023-06-14T09:35:17;101796.03;;;25.19;31.97
71964;BME280;59834;52.124;5.422;2023-06-14T09:37:44;101796.50;;;25.14;30.18
71964;BME280;59834;52.124;5.422;2023-06-14T09:40:11;101786.66;;;24.99;29.44
71964;BME280;59834;52.124;5.422;2023-06-14T09:42:38;101791.31;;;25.05;29.03
71964;BME280;59834;52.124;5.422;2023-06-14T09:45:05;101788.13;;;25.17;28.58
71964;BME280;59834;52.124;5.422;2023-06-14T09:47:32;101790.47;;;25.04;30.02
71964;BME280;59834;52.124;5.422;2023-06-14T09:49:58;101791.50;;;25.03;30.01
71964;BME280;59834;52.124;5.422;2023-06-14T09:52:27;101788.47;;;25.06;30.71
71964;BME280;59834;52.124;5.422;2023-06-14T09:54:54;101785.81;;;25.23;30.29
71964;BME280;59834;52.124;5.422;2023-06-14T09:57:23;101783.63;;;25.26;30.56
71964;BME280;59834;52.124;5.422;2023-06-14T09:59:53;101772.03;;;25.34;30.19
71964;BME280;59834;52.124;5.422;2023-06-14T10:02:28;101779.91;;;25.35;31.25
71964;BME280;59834;52.124;5.422;2023-06-14T10:05:03;101783.28;;;25.21;30.55
71964;BME280;59834;52.124;5.422;2023-06-14T10:07:38;101783.13;;;25.23;30.67
71964;BME280;59834;52.124;5.422;2023-06-14T10:10:07;101760.53;;;25.25;30.84
71964;BME280;59834;52.124;5.422;2023-06-14T10:12:33;101776.94;;;25.14;30.38
71964;BME280;59834;52.124;5.422;2023-06-14T10:15:00;101778.75;;;25.22;31.02
71964;BME280;59834;52.124;5.422;2023-06-14T10:17:40;101783.59;;;25.10;29.02
71964;BME280;59834;52.124;5.422;2023-06-14T10:20:51;101775.28;;;25.13;28.07
71964;BME280;59834;52.124;5.422;2023-06-14T10:23:18;101784.09;;;25.22;27.63
71964;BME280;59834;52.124;5.422;2023-06-14T10:25:49;101783.47;;;25.20;27.51
71964;BME280;59834;52.124;5.422;2023-06-14T10:28:20;101775.84;;;25.48;28.15
71964;BME280;59834;52.124;5.422;2023-06-14T10:31:10;101772.22;;;25.32;28.42
71964;BME280;59834;52.124;5.422;2023-06-14T10:33:56;101770.88;;;25.28;28.44
71964;BME280;59834;52.124;5.422;2023-06-14T10:41:36;101764.75;;;25.59;29.01
71964;BME280;59834;52.124;5.422;2023-06-14T10:46:58;101764.00;;;25.81;30.85
71964;BME280;59834;52.124;5.422;2023-06-14T10:49:44;101768.06;;;25.69;30.02
71964;BME280;59834;52.124;5.422;2023-06-14T10:52:13;101763.00;;;25.74;29.11
71964;BME280;59834;52.124;5.422;2023-06-14T10:57:46;101772.56;;;25.69;29.39
71964;BME280;59834;52.124;5.422;2023-06-14T11:00:21;101768.00;;;25.77;29.81
71964;BME280;59834;52.124;5.422;2023-06-14T11:03:31;101767.50;;;25.90;29.25
71964;BME280;59834;52.124;5.422;2023-06-14T11:06:13;101766.69;;;25.73;29.72
71964;BME280;59834;52.124;5.422;2023-06-14T11:11:31;101770.69;;;25.77;30.20
71964;BME280;59834;52.124;5.422;2023-06-14T11:13:59;101770.06;;;25.67;29.10
71964;BME280;59834;52.124;5.422;2023-06-14T11:16:27;101761.97;;;25.75;29.23
71964;BME280;59834;52.124;5.422;2023-06-14T11:18:54;101762.97;;;25.91;29.96
71964;BME280;59834;52.124;5.422;2023-06-14T11:21:21;101762.19;;;26.05;29.71
71964;BME280;59834;52.124;5.422;2023-06-14T11:23:52;101761.09;;;25.91;30.10
71964;BME280;59834;52.124;5.422;2023-06-14T11:26:30;101766.53;;;25.83;29.77
71964;BME280;59834;52.124;5.422;2023-06-14T11:29:00;101765.34;;;25.85;29.45
71964;BME280;59834;52.124;5.422;2023-06-14T11:31:28;101757.00;;;25.72;28.52
71964;BME280;59834;52.124;5.422;2023-06-14T11:33:59;101777.19;;;25.91;29.05
71964;BME280;59834;52.124;5.422;2023-06-14T11:36:27;101754.28;;;25.80;28.95
71964;BME280;59834;52.124;5.422;2023-06-14T11:39:04;101755.75;;;25.91;29.35
71964;BME280;59834;52.124;5.422;2023-06-14T11:41:43;101752.56;;;25.88;29.31
71964;BME280;59834;52.124;5.422;2023-06-14T11:44:11;101754.72;;;25.92;29.25
71964;BME280;59834;52.124;5.422;2023-06-14T11:46:39;101750.56;;;25.90;29.20
71964;BME280;59834;52.124;5.422;2023-06-14T11:49:07;101751.41;;;25.82;29.66
71964;BME280;59834;52.124;5.422;2023-06-14T11:51:34;101748.03;;;25.88;29.96
71964;BME280;59834;52.124;5.422;2023-06-14T11:54:05;101748.66;;;25.98;29.38
71964;BME280;59834;52.124;5.422;2023-06-14T11:56:32;101751.47;;;26.05;29.10
71964;BME280;59834;52.124;5.422;2023-06-14T11:58:59;101752.00;;;26.00;29.41
71964;BME280;59834;52.124;5.422;2023-06-14T12:01:27;101753.03;;;25.99;28.88
71964;BME280;59834;52.124;5.422;2023-06-14T12:03:54;101755.78;;;25.75;28.44
71964;BME280;59834;52.124;5.422;2023-06-14T12:06:28;101763.84;;;25.83;29.08
71964;BME280;59834;52.124;5.422;2023-06-14T12:08:58;101744.91;;;25.76;28.95
71964;BME280;59834;52.124;5.422;2023-06-14T12:11:31;101744.28;;;25.66;29.34
71964;BME280;59834;52.124;5.422;2023-06-14T12:13:59;101751.41;;;25.82;28.99
71964;BME280;59834;52.124;5.422;2023-06-14T12:16:34;101753.59;;;25.86;29.42
71964;BME280;59834;52.124;5.422;2023-06-14T12:19:16;101745.28;;;26.04;29.57
71964;BME280;59834;52.124;5.422;2023-06-14T12:21:46;101747.06;;;26.12;28.92
71964;BME280;59834;52.124;5.422;2023-06-14T12:24:15;101748.03;;;26.19;29.51
71964;BME280;59834;52.124;5.422;2023-06-14T12:26:41;101742.47;;;26.21;28.86
71964;BME280;59834;52.124;5.422;2023-06-14T12:29:08;101751.53;;;25.97;30.32
71964;BME280;59834;52.124;5.422;2023-06-14T12:31:35;101755.16;;;26.04;29.57
71964;BME280;59834;52.124;5.422;2023-06-14T12:34:02;101742.44;;;26.06;28.66
71964;BME280;59834;52.124;5.422;2023-06-14T12:36:29;101748.28;;;26.09;29.34
71964;BME280;59834;52.124;5.422;2023-06-14T12:38:56;101750.06;;;26.17;30.17
71964;BME280;59834;52.124;5.422;2023-06-14T12:41:23;101740.16;;;26.41;29.08
71964;BME280;59834;52.124;5.422;2023-06-14T12:43:50;101748.88;;;26.43;29.08
71964;BME280;59834;52.124;5.422;2023-06-14T12:46:17;101745.66;;;26.70;28.42
71964;BME280;59834;52.124;5.422;2023-06-14T12:48:44;101741.84;;;26.65;28.27
71964;BME280;59834;52.124;5.422;2023-06-14T12:51:10;101748.41;;;26.39;28.50
71964;BME280;59834;52.124;5.422;2023-06-14T12:53:37;101749.50;;;26.45;28.19
71964;BME280;59834;52.124;5.422;2023-06-14T12:56:04;101746.63;;;26.54;28.09
71964;BME280;59834;52.124;5.422;2023-06-14T12:58:30;101747.16;;;26.73;28.09
71964;BME280;59834;52.124;5.422;2023-06-14T13:00:57;101752.69;;;26.71;27.34
71964;BME280;59834;52.124;5.422;2023-06-14T13:03:23;101761.28;;;26.67;27.94
71964;BME280;59834;52.124;5.422;2023-06-14T13:05:50;101757.84;;;26.58;27.25
71964;BME280;59834;52.124;5.422;2023-06-14T13:08:17;101763.09;;;26.51;27.23
71964;BME280;59834;52.124;5.422;2023-06-14T13:10:43;101754.56;;;26.48;27.48